sensor_id;sensor_type;location;lat;lon;timestamp;P1;durP1;ratioP1;P2;durP2;ratioP2
4309;SDS011;2168;53.576;9.980;2023-06-22T00:00:59;2.50;;;2.50;;
4309;SDS011;2168;53.576;9.980;2023-06-22T00:03:25;2.60;;;2.60;;
4309;SDS011;2168;53.576;9.980;2023-06-22T00:05:50;2.60;;;2.60;;
4309;SDS011;2168;53.576;9.980;2023-06-22T00:08:16;2.50;;;2.50;;
4309;SDS011;2168;53.576;9.980;2023-06-22T00:10:41;2.43;;;2.43;;
4309;SDS011;2168;53.576;9.980;2023-06-22T00:13:07;2.30;;;2.30;;
4309;SDS011;2168;53.576;9.980;2023-06-22T00:15:32;2.40;;;2.40;;
4309;SDS011;2168;53.576;9.980;2023-06-22T00:17:57;2.33;;;2.33;;
4309;SDS011;2168;53.576;9.980;2023-06-22T00:20:23;2.40;;;2.40;;
4309;SDS011;2168;53.576;9.980;2023-06-22T00:22:52;2.33;;;2.33;;
4309;SDS011;2168;53.576;9.980;2023-06-22T00:25:17;2.20;;;2.20;;
4309;SDS011;2168;53.576;9.980;2023-06-22T00:27:43;2.30;;;2.30;;
4309;SDS011;2168;53.576;9.980;2023-06-22T00:30:08;2.23;;;2.23;;
4309;SDS011;2168;53.576;9.980;2023-06-22T00:32:33;2.10;;;2.10;;
4309;SDS011;2168;53.576;9.980;2023-06-22T00:34:58;2.20;;;2.20;;
4309;SDS011;2168;53.576;9.980;2023-06-22T00:37:25;2.20;;;2.20;;
4309;SDS011;2168;53.576;9.980;2023-06-22T00:39:50;2.13;;;2.13;;
4309;SDS011;2168;53.576;9.980;2023-06-22T00:42:15;1.90;;;1.90;;
4309;SDS011;2168;53.576;9.980;2023-06-22T00:44:41;2.10;;;2.10;;
4309;SDS011;2168;53.576;9.980;2023-06-22T00:47:06;2.30;;;2.30;;
4309;SDS011;2168;53.576;9.980;2023-06-22T00:49:32;2.13;;;2.13;;
4309;SDS011;2168;53.576;9.980;2023-06-22T00:51:57;2.00;;;2.00;;
4309;SDS011;2168;53.576;9.980;2023-06-22T00:54:22;2.10;;;2.10;;
4309;SDS011;2168;53.576;9.980;2023-06-22T00:56:53;2.27;;;2.27;;
4309;SDS011;2168;53.576;9.980;2023-06-22T00:59:19;2.03;;;2.03;;
4309;SDS011;2168;53.576;9.980;2023-06-22T01:01:45;2.20;;;2.20;;
4309;SDS011;2168;53.576;9.980;2023-06-22T01:04:10;2.10;;;2.10;;
4309;SDS011;2168;53.576;9.980;2023-06-22T01:06:38;1.90;;;1.90;;
4309;SDS011;2168;53.576;9.980;2023-06-22T01:09:08;2.00;;;2.00;;
4309;SDS011;2168;53.576;9.980;2023-06-22T01:11:41;2.00;;;2.00;;
4309;SDS011;2168;53.576;9.980;2023-06-22T01:14:19;1.87;;;1.87;;
4309;SDS011;2168;53.576;9.980;2023-06-22T01:16:45;2.00;;;2.00;;
4309;SDS011;2168;53.576;9.980;2023-06-22T01:21:49;1.90;;;1.90;;
4309;SDS011;2168;53.576;9.980;2023-06-22T01:26:48;1.90;;;1.90;;
4309;SDS011;2168;53.576;9.980;2023-06-22T01:29:18;2.07;;;2.07;;
4309;SDS011;2168;53.576;9.980;2023-06-22T01:31:44;2.00;;;2.00;;
4309;SDS011;2168;53.576;9.980;2023-06-22T01:34:09;2.00;;;2.00;;
4309;SDS011;2168;53.576;9.980;2023-06-22T01:36:35;2.00;;;2.00;;
4309;SDS011;2168;53.576;9.980;2023-06-22T01:39:01;2.00;;;2.00;;
4309;SDS011;2168;53.576;9.980;2023-06-22T01:41:28;1.90;;;1.90;;
4309;SDS011;2168;53.576;9.980;2023-06-22T01:43:54;1.90;;;1.90;;
4309;SDS011;2168;53.576;9.980;2023-06-22T01:46:20;1.90;;;1.90;;
4309;SDS011;2168;53.576;9.980;2023-06-22T01:48:46;1.90;;;1.90;;
4309;SDS011;2168;53.576;9.980;2023-06-22T01:51:11;1.70;;;1.70;;
4309;SDS011;2168;53.576;9.980;2023-06-22T01:53:36;1.70;;;1.70;;
4309;SDS011;2168;53.576;9.980;2023-06-22T01:56:02;1.80;;;1.80;;
4309;SDS011;2168;53.576;9.980;2023-06-22T01:58:27;1.90;;;1.90;;
4309;SDS011;2168;53.576;9.980;2023-06-22T02:00:59;1.63;;;1.63;;
4309;SDS011;2168;53.576;9.980;2023-06-22T02:03:32;1.80;;;1.80;;
4309;SDS011;2168;53.576;9.980;2023-06-22T02:06:03;1.90;;;1.90;;
4309;SDS011;2168;53.576;9.980;2023-06-22T02:08:30;1.70;;;1.70;;
4309;SDS011;2168;53.576;9.980;2023-06-22T02:10:55;1.87;;;1.87;;
4309;SDS011;2168;53.576;9.980;2023-06-22T02:13:23;1.63;;;1.63;;
4309;SDS011;2168;53.576;9.980;2023-06-22T02:15:49;1.80;;;1.80;;
4309;SDS011;2168;53.576;9.980;2023-06-22T02:18:14;1.60;;;1.60;;
4309;SDS011;2168;53.576;9.980;2023-06-22T02:20:40;1.80;;;1.80;;
4309;SDS011;2168;53.576;9.980;2023-06-22T02:23:05;1.90;;;1.90;;
4309;SDS011;2168;53.576;9.980;2023-06-22T02:25:31;2.00;;;2.00;;
4309;SDS011;2168;53.576;9.980;2023-06-22T02:27:56;1.80;;;1.80;;
4309;SDS011;2168;53.576;9.980;2023-06-22T02:30:22;1.80;;;1.80;;
4309;SDS011;2168;53.576;9.980;2023-06-22T02:32:47;1.77;;;1.77;;
4309;SDS011;2168;53.576;9.980;2023-06-22T02:35:12;1.90;;;1.90;;
4309;SDS011;2168;53.576;9.980;2023-06-22T02:37:38;1.93;;;1.93;;
4309;SDS011;2168;53.576;9.980;2023-06-22T02:40:06;1.60;;;1.60;;
4309;SDS011;2168;53.576;9.980;2023-06-22T02:42:33;1.80;;;1.80;;
4309;SDS011;2168;53.576;9.980;2023-06-22T02:44:58;1.87;;;1.87;;
4309;SDS011;2168;53.576;9.980;2023-06-22T02:47:24;1.80;;;1.80;;
4309;SDS011;2168;53.576;9.980;2023-06-22T02:49:49;1.70;;;1.70;;
4309;SDS011;2168;53.576;9.980;2023-06-22T02:52:14;1.90;;;1.90;;
4309;SDS011;2168;53.576;9.980;2023-06-22T02:54:39;1.70;;;1.70;;
4309;SDS011;2168;53.576;9.980;2023-06-22T02:57:04;1.70;;;1.70;;
4309;SDS011;2168;53.576;9.980;2023-06-22T02:59:29;1.60;;;1.60;;
4309;SDS011;2168;53.576;9.980;2023-06-22T03:01:55;1.50;;;1.50;;
4309;SDS011;2168;53.576;9.980;2023-06-22T03:04:20;1.70;;;1.70;;
4309;SDS011;2168;53.576;9.980;2023-06-22T03:06:46;1.60;;;1.60;;
4309;SDS011;2168;53.576;9.980;2023-06-22T03:09:15;1.70;;;1.70;;
4309;SDS011;2168;53.576;9.980;2023-06-22T03:11:41;1.60;;;1.60;;
4309;SDS011;2168;53.576;9.980;2023-06-22T03:14:06;1.47;;;1.47;;
4309;SDS011;2168;53.576;9.980;2023-06-22T03:16:31;1.57;;;1.57;;
4309;SDS011;2168;53.576;9.980;2023-06-22T03:18:58;1.60;;;1.60;;
4309;SDS011;2168;53.576;9.980;2023-06-22T03:21:23;1.40;;;1.40;;
4309;SDS011;2168;53.576;9.980;2023-06-22T03:23:48;1.50;;;1.50;;
4309;SDS011;2168;53.576;9.980;2023-06-22T03:26:16;1.50;;;1.50;;
4309;SDS011;2168;53.576;9.980;2023-06-22T03:28:41;1.30;;;1.30;;
4309;SDS011;2168;53.576;9.980;2023-06-22T03:31:06;1.60;;;1.60;;
4309;SDS011;2168;53.576;9.980;2023-06-22T03:33:32;1.70;;;1.70;;
4309;SDS011;2168;53.576;9.980;2023-06-22T03:35:57;1.37;;;1.37;;
4309;SDS011;2168;53.576;9.980;2023-06-22T03:38:22;1.60;;;1.60;;
4309;SDS011;2168;53.576;9.980;2023-06-22T03:40:47;1.40;;;1.40;;
4309;SDS011;2168;53.576;9.980;2023-06-22T03:43:12;1.57;;;1.57;;
4309;SDS011;2168;53.576;9.980;2023-06-22T03:45:38;1.30;;;1.30;;
4309;SDS011;2168;53.576;9.980;2023-06-22T03:48:03;1.60;;;1.60;;
4309;SDS011;2168;53.576;9.980;2023-06-22T03:50:28;1.50;;;1.50;;
4309;SDS011;2168;53.576;9.980;2023-06-22T03:52:54;1.37;;;1.37;;
4309;SDS011;2168;53.576;9.980;2023-06-22T03:55:20;1.47;;;1.47;;
4309;SDS011;2168;53.576;9.980;2023-06-22T03:57:45;1.40;;;1.40;;
4309;SDS011;2168;53.576;9.980;2023-06-22T04:00:11;1.50;;;1.50;;
4309;SDS011;2168;53.576;9.980;2023-06-22T04:02:36;1.40;;;1.40;;
4309;SDS011;2168;53.576;9.980;2023-06-22T04:05:01;1.20;;;1.20;;
4309;SDS011;2168;53.576;9.980;2023-06-22T04:07:26;1.20;;;1.20;;
4309;SDS011;2168;53.576;9.980;2023-06-22T04:09:51;1.10;;;1.10;;
4309;SDS011;2168;53.576;9.980;2023-06-22T04:12:17;1.30;;;1.30;;
4309;SDS011;2168;53.576;9.980;2023-06-22T04:14:42;0.97;;;0.97;;
4309;SDS011;2168;53.576;9.980;2023-06-22T04:17:07;1.20;;;1.20;;
4309;SDS011;2168;53.576;9.980;2023-06-22T04:19:32;0.97;;;0.97;;
4309;SDS011;2168;53.576;9.980;2023-06-22T04:21:57;1.20;;;1.20;;
4309;SDS011;2168;53.576;9.980;2023-06-22T04:24:23;1.10;;;1.10;;
4309;SDS011;2168;53.576;9.980;2023-06-22T04:26:48;1.30;;;1.30;;
4309;SDS011;2168;53.576;9.980;2023-06-22T04:29:13;1.10;;;1.10;;
4309;SDS011;2168;53.576;9.980;2023-06-22T04:31:38;1.00;;;1.00;;
4309;SDS011;2168;53.576;9.980;2023-06-22T04:34:04;1.00;;;1.00;;
4309;SDS011;2168;53.576;9.980;2023-06-22T04:36:34;1.00;;;1.00;;
4309;SDS011;2168;53.576;9.980;2023-06-22T04:39:02;1.20;;;1.20;;
4309;SDS011;2168;53.576;9.980;2023-06-22T04:41:28;1.10;;;1.10;;
4309;SDS011;2168;53.576;9.980;2023-06-22T04:43:53;1.17;;;1.17;;
4309;SDS011;2168;53.576;9.980;2023-06-22T04:46:19;1.00;;;1.00;;
4309;SDS011;2168;53.576;9.980;2023-06-22T04:48:44;1.07;;;1.07;;
4309;SDS011;2168;53.576;9.980;2023-06-22T04:51:09;1.10;;;1.10;;
4309;SDS011;2168;53.576;9.980;2023-06-22T04:53:35;1.20;;;1.20;;
4309;SDS011;2168;53.576;9.980;2023-06-22T04:56:00;1.00;;;1.00;;
4309;SDS011;2168;53.576;9.980;2023-06-22T04:58:25;1.10;;;1.10;;
4309;SDS011;2168;53.576;9.980;2023-06-22T05:00:53;1.27;;;1.27;;
4309;SDS011;2168;53.576;9.980;2023-06-22T05:03:21;1.10;;;1.10;;
4309;SDS011;2168;53.576;9.980;2023-06-22T05:05:47;1.10;;;1.10;;
4309;SDS011;2168;53.576;9.980;2023-06-22T05:08:13;1.17;;;1.17;;
4309;SDS011;2168;53.576;9.980;2023-06-22T05:10:38;1.30;;;1.30;;
4309;SDS011;2168;53.576;9.980;2023-06-22T05:13:03;1.10;;;1.10;;
4309;SDS011;2168;53.576;9.980;2023-06-22T05:15:28;1.20;;;1.20;;
4309;SDS011;2168;53.576;9.980;2023-06-22T05:17:55;1.30;;;1.30;;
4309;SDS011;2168;53.576;9.980;2023-06-22T05:20:20;1.30;;;1.30;;
4309;SDS011;2168;53.576;9.980;2023-06-22T05:22:47;1.40;;;1.40;;
4309;SDS011;2168;53.576;9.980;2023-06-22T05:25:12;1.03;;;1.03;;
4309;SDS011;2168;53.576;9.980;2023-06-22T05:27:38;1.37;;;1.37;;
4309;SDS011;2168;53.576;9.980;2023-06-22T05:30:05;1.23;;;1.23;;
4309;SDS011;2168;53.576;9.980;2023-06-22T05:32:30;1.30;;;1.30;;
4309;SDS011;2168;53.576;9.980;2023-06-22T05:34:55;1.23;;;1.23;;
4309;SDS011;2168;53.576;9.980;2023-06-22T05:37:20;1.30;;;1.30;;
4309;SDS011;2168;53.576;9.980;2023-06-22T05:39:46;1.20;;;1.20;;
4309;SDS011;2168;53.576;9.980;2023-06-22T05:42:11;1.00;;;1.00;;
4309;SDS011;2168;53.576;9.980;2023-06-22T05:44:36;1.30;;;1.30;;
4309;SDS011;2168;53.576;9.980;2023-06-22T05:47:04;1.20;;;1.20;;
4309;SDS011;2168;53.576;9.980;2023-06-22T05:49:29;1.30;;;1.30;;
4309;SDS011;2168;53.576;9.980;2023-06-22T05:51:57;1.30;;;1.30;;
4309;SDS011;2168;53.576;9.980;2023-06-22T05:54:23;1.47;;;1.47;;
4309;SDS011;2168;53.576;9.980;2023-06-22T05:56:48;1.40;;;1.40;;
4309;SDS011;2168;53.576;9.980;2023-06-22T05:59:13;1.63;;;1.63;;
4309;SDS011;2168;53.576;9.980;2023-06-22T06:01:38;1.67;;;1.67;;
4309;SDS011;2168;53.576;9.980;2023-06-22T06:04:05;1.50;;;1.50;;
4309;SDS011;2168;53.576;9.980;2023-06-22T06:06:30;1.80;;;1.80;;
4309;SDS011;2168;53.576;9.980;2023-06-22T06:08:55;1.70;;;1.70;;
4309;SDS011;2168;53.576;9.980;2023-06-22T06:11:21;1.70;;;1.70;;
4309;SDS011;2168;53.576;9.980;2023-06-22T06:13:46;1.60;;;1.60;;
4309;SDS011;2168;53.576;9.980;2023-06-22T06:16:12;1.60;;;1.60;;
4309;SDS011;2168;53.576;9.980;2023-06-22T06:18:37;1.50;;;1.50;;
4309;SDS011;2168;53.576;9.980;2023-06-22T06:21:02;1.50;;;1.50;;
4309;SDS011;2168;53.576;9.980;2023-06-22T06:23:28;1.43;;;1.43;;
4309;SDS011;2168;53.576;9.980;2023-06-22T06:25:53;1.80;;;1.80;;
4309;SDS011;2168;53.576;9.980;2023-06-22T06:28:18;1.80;;;1.80;;
4309;SDS011;2168;53.576;9.980;2023-06-22T06:30:43;1.80;;;1.80;;
4309;SDS011;2168;53.576;9.980;2023-06-22T06:33:08;1.50;;;1.50;;
4309;SDS011;2168;53.576;9.980;2023-06-22T06:35:34;1.90;;;1.90;;
4309;SDS011;2168;53.576;9.980;2023-06-22T06:37:59;1.70;;;1.70;;
4309;SDS011;2168;53.576;9.980;2023-06-22T06:40:24;2.00;;;2.00;;
4309;SDS011;2168;53.576;9.980;2023-06-22T06:42:49;1.83;;;1.83;;
4309;SDS011;2168;53.576;9.980;2023-06-22T06:45:16;1.80;;;1.80;;
4309;SDS011;2168;53.576;9.980;2023-06-22T06:47:42;1.70;;;1.70;;
4309;SDS011;2168;53.576;9.980;2023-06-22T06:50:07;1.73;;;1.73;;
4309;SDS011;2168;53.576;9.980;2023-06-22T06:52:33;1.73;;;1.73;;
4309;SDS011;2168;53.576;9.980;2023-06-22T06:54:58;1.70;;;1.70;;
4309;SDS011;2168;53.576;9.980;2023-06-22T06:57:23;1.70;;;1.70;;
4309;SDS011;2168;53.576;9.980;2023-06-22T06:59:53;1.73;;;1.73;;
4309;SDS011;2168;53.576;9.980;2023-06-22T07:02:18;1.87;;;1.87;;
4309;SDS011;2168;53.576;9.980;2023-06-22T07:04:44;1.50;;;1.50;;
4309;SDS011;2168;53.576;9.980;2023-06-22T07:07:09;1.70;;;1.70;;
4309;SDS011;2168;53.576;9.980;2023-06-22T07:09:35;1.87;;;1.87;;
4309;SDS011;2168;53.576;9.980;2023-06-22T07:12:00;1.60;;;1.60;;
4309;SDS011;2168;53.576;9.980;2023-06-22T07:14:25;1.70;;;1.70;;
4309;SDS011;2168;53.576;9.980;2023-06-22T07:16:50;1.80;;;1.80;;
4309;SDS011;2168;53.576;9.980;2023-06-22T07:19:15;2.00;;;2.00;;
4309;SDS011;2168;53.576;9.980;2023-06-22T07:21:40;1.90;;;1.90;;
4309;SDS011;2168;53.576;9.980;2023-06-22T07:24:06;1.90;;;1.90;;
4309;SDS011;2168;53.576;9.980;2023-06-22T07:26:32;1.70;;;1.70;;
4309;SDS011;2168;53.576;9.980;2023-06-22T07:28:57;1.70;;;1.70;;
4309;SDS011;2168;53.576;9.980;2023-06-22T07:31:23;1.93;;;1.93;;
4309;SDS011;2168;53.576;9.980;2023-06-22T07:33:49;1.97;;;1.97;;
4309;SDS011;2168;53.576;9.980;2023-06-22T07:36:14;2.10;;;2.10;;
4309;SDS011;2168;53.576;9.980;2023-06-22T07:38:39;2.10;;;2.10;;
4309;SDS011;2168;53.576;9.980;2023-06-22T07:41:04;2.13;;;2.13;;
4309;SDS011;2168;53.576;9.980;2023-06-22T07:43:32;1.60;;;1.60;;
4309;SDS011;2168;53.576;9.980;2023-06-22T07:45:59;1.80;;;1.80;;
4309;SDS011;2168;53.576;9.980;2023-06-22T07:48:24;2.17;;;2.17;;
4309;SDS011;2168;53.576;9.980;2023-06-22T07:50:49;2.27;;;2.27;;
4309;SDS011;2168;53.576;9.980;2023-06-22T07:53:14;2.30;;;2.30;;
4309;SDS011;2168;53.576;9.980;2023-06-22T07:55:40;2.10;;;2.10;;
4309;SDS011;2168;53.576;9.980;2023-06-22T07:58:05;2.10;;;2.10;;
4309;SDS011;2168;53.576;9.980;2023-06-22T08:00:30;2.10;;;2.10;;
4309;SDS011;2168;53.576;9.980;2023-06-22T08:02:55;2.40;;;2.40;;
4309;SDS011;2168;53.576;9.980;2023-06-22T08:05:21;2.47;;;2.47;;
4309;SDS011;2168;53.576;9.980;2023-06-22T08:07:46;2.67;;;2.67;;
4309;SDS011;2168;53.576;9.980;2023-06-22T08:10:12;2.47;;;2.47;;
4309;SDS011;2168;53.576;9.980;2023-06-22T08:12:37;2.50;;;2.50;;
4309;SDS011;2168;53.576;9.980;2023-06-22T08:15:02;2.43;;;2.43;;
4309;SDS011;2168;53.576;9.980;2023-06-22T08:17:28;2.43;;;2.43;;
4309;SDS011;2168;53.576;9.980;2023-06-22T08:19:53;2.40;;;2.40;;
4309;SDS011;2168;53.576;9.980;2023-06-22T08:22:18;2.60;;;2.60;;
4309;SDS011;2168;53.576;9.980;2023-06-22T08:24:43;2.50;;;2.50;;
4309;SDS011;2168;53.576;9.980;2023-06-22T08:27:09;2.63;;;2.63;;
4309;SDS011;2168;53.576;9.980;2023-06-22T08:29:36;2.47;;;2.47;;
4309;SDS011;2168;53.576;9.980;2023-06-22T08:32:02;2.57;;;2.57;;
4309;SDS011;2168;53.576;9.980;2023-06-22T08:34:27;2.57;;;2.57;;
4309;SDS011;2168;53.576;9.980;2023-06-22T08:36:53;2.50;;;2.50;;
4309;SDS011;2168;53.576;9.980;2023-06-22T08:39:19;2.70;;;2.70;;
4309;SDS011;2168;53.576;9.980;2023-06-22T08:41:45;2.70;;;2.70;;
4309;SDS011;2168;53.576;9.980;2023-06-22T08:44:10;2.50;;;2.50;;
4309;SDS011;2168;53.576;9.980;2023-06-22T08:46:35;2.20;;;2.20;;
4309;SDS011;2168;53.576;9.980;2023-06-22T08:49:00;2.23;;;2.23;;
4309;SDS011;2168;53.576;9.980;2023-06-22T08:51:26;2.00;;;2.00;;
4309;SDS011;2168;53.576;9.980;2023-06-22T08:53:51;2.83;;;2.83;;
4309;SDS011;2168;53.576;9.980;2023-06-22T08:56:16;2.60;;;2.60;;
4309;SDS011;2168;53.576;9.980;2023-06-22T08:58:42;2.50;;;2.50;;
4309;SDS011;2168;53.576;9.980;2023-06-22T09:01:07;2.73;;;2.73;;
4309;SDS011;2168;53.576;9.980;2023-06-22T09:03:32;2.30;;;2.30;;
4309;SDS011;2168;53.576;9.980;2023-06-22T09:05:59;2.20;;;2.20;;
4309;SDS011;2168;53.576;9.980;2023-06-22T09:08:25;2.73;;;2.73;;
4309;SDS011;2168;53.576;9.980;2023-06-22T09:10:50;2.57;;;2.57;;
4309;SDS011;2168;53.576;9.980;2023-06-22T09:13:15;2.70;;;2.70;;
4309;SDS011;2168;53.576;9.980;2023-06-22T09:15:40;2.40;;;2.40;;
4309;SDS011;2168;53.576;9.980;2023-06-22T09:18:05;2.70;;;2.70;;
4309;SDS011;2168;53.576;9.980;2023-06-22T09:20:31;2.40;;;2.40;;
4309;SDS011;2168;53.576;9.980;2023-06-22T09:22:56;2.50;;;2.50;;
4309;SDS011;2168;53.576;9.980;2023-06-22T09:25:21;2.67;;;2.67;;
4309;SDS011;2168;53.576;9.980;2023-06-22T09:27:47;2.90;;;2.90;;
4309;SDS011;2168;53.576;9.980;2023-06-22T09:30:12;2.73;;;2.73;;
4309;SDS011;2168;53.576;9.980;2023-06-22T09:32:37;2.47;;;2.47;;
4309;SDS011;2168;53.576;9.980;2023-06-22T09:35:04;2.80;;;2.80;;
4309;SDS011;2168;53.576;9.980;2023-06-22T09:37:30;2.70;;;2.70;;
4309;SDS011;2168;53.576;9.980;2023-06-22T09:39:55;2.23;;;2.23;;
4309;SDS011;2168;53.576;9.980;2023-06-22T09:42:21;2.88;;;2.88;;
4309;SDS011;2168;53.576;9.980;2023-06-22T09:44:46;2.70;;;2.70;;
4309;SDS011;2168;53.576;9.980;2023-06-22T09:47:11;2.93;;;2.93;;
4309;SDS011;2168;53.576;9.980;2023-06-22T09:49:36;2.67;;;2.67;;
4309;SDS011;2168;53.576;9.980;2023-06-22T09:52:01;2.90;;;2.90;;
4309;SDS011;2168;53.576;9.980;2023-06-22T09:54:26;2.90;;;2.90;;
4309;SDS011;2168;53.576;9.980;2023-06-22T09:56:52;3.57;;;3.57;;
4309;SDS011;2168;53.576;9.980;2023-06-22T09:59:17;3.13;;;3.13;;
4309;SDS011;2168;53.576;9.980;2023-06-22T10:01:42;3.53;;;3.53;;
4309;SDS011;2168;53.576;9.980;2023-06-22T10:04:07;3.17;;;3.17;;
4309;SDS011;2168;53.576;9.980;2023-06-22T10:06:32;3.10;;;3.10;;
4309;SDS011;2168;53.576;9.980;2023-06-22T10:08:57;3.07;;;3.07;;
4309;SDS011;2168;53.576;9.980;2023-06-22T10:11:23;3.13;;;3.13;;
4309;SDS011;2168;53.576;9.980;2023-06-22T10:13:54;3.13;;;3.13;;
4309;SDS011;2168;53.576;9.980;2023-06-22T10:16:19;3.47;;;3.47;;
4309;SDS011;2168;53.576;9.980;2023-06-22T10:18:44;3.20;;;3.20;;
4309;SDS011;2168;53.576;9.980;2023-06-22T10:21:09;3.65;;;3.65;;
4309;SDS011;2168;53.576;9.980;2023-06-22T10:23:34;3.37;;;3.37;;
4309;SDS011;2168;53.576;9.980;2023-06-22T10:25:59;3.13;;;3.13;;
4309;SDS011;2168;53.576;9.980;2023-06-22T10:28:25;3.20;;;3.20;;
4309;SDS011;2168;53.576;9.980;2023-06-22T10:30:50;3.17;;;3.17;;
4309;SDS011;2168;53.576;9.980;2023-06-22T10:33:15;2.97;;;2.97;;
4309;SDS011;2168;53.576;9.980;2023-06-22T10:35:40;3.10;;;3.10;;
4309;SDS011;2168;53.576;9.980;2023-06-22T10:38:06;3.37;;;3.37;;
4309;SDS011;2168;53.576;9.980;2023-06-22T10:40:31;3.20;;;3.20;;
4309;SDS011;2168;53.576;9.980;2023-06-22T10:42:56;3.20;;;3.20;;
4309;SDS011;2168;53.576;9.980;2023-06-22T10:45:22;3.60;;;3.60;;
4309;SDS011;2168;53.576;9.980;2023-06-22T10:47:47;3.40;;;3.40;;
4309;SDS011;2168;53.576;9.980;2023-06-22T10:50:12;3.43;;;3.43;;
4309;SDS011;2168;53.576;9.980;2023-06-22T10:52:37;3.40;;;3.40;;
4309;SDS011;2168;53.576;9.980;2023-06-22T10:55:03;3.70;;;3.70;;
4309;SDS011;2168;53.576;9.980;2023-06-22T10:57:28;3.53;;;3.53;;
4309;SDS011;2168;53.576;9.980;2023-06-22T10:59:54;3.50;;;3.50;;
4309;SDS011;2168;53.576;9.980;2023-06-22T11:02:19;3.53;;;3.53;;
4309;SDS011;2168;53.576;9.980;2023-06-22T11:04:44;3.57;;;3.57;;
4309;SDS011;2168;53.576;9.980;2023-06-22T11:07:09;3.27;;;3.27;;
4309;SDS011;2168;53.576;9.980;2023-06-22T11:09:35;3.83;;;3.83;;
4309;SDS011;2168;53.576;9.980;2023-06-22T11:12:00;3.50;;;3.50;;
4309;SDS011;2168;53.576;9.980;2023-06-22T11:14:25;4.07;;;4.07;;
4309;SDS011;2168;53.576;9.980;2023-06-22T11:16:50;3.40;;;3.40;;
4309;SDS011;2168;53.576;9.980;2023-06-22T11:19:15;3.47;;;3.47;;
4309;SDS011;2168;53.576;9.980;2023-06-22T11:21:41;3.60;;;3.60;;
4309;SDS011;2168;53.576;9.980;2023-06-22T11:24:06;3.55;;;3.55;;
4309;SDS011;2168;53.576;9.980;2023-06-22T11:26:31;3.47;;;3.47;;
4309;SDS011;2168;53.576;9.980;2023-06-22T11:28:57;3.87;;;3.87;;
4309;SDS011;2168;53.576;9.980;2023-06-22T11:31:22;3.40;;;3.40;;
4309;SDS011;2168;53.576;9.980;2023-06-22T11:33:47;4.30;;;4.30;;
4309;SDS011;2168;53.576;9.980;2023-06-22T11:36:13;3.97;;;3.97;;
4309;SDS011;2168;53.576;9.980;2023-06-22T11:38:38;3.57;;;3.57;;
4309;SDS011;2168;53.576;9.980;2023-06-22T11:41:07;3.43;;;3.43;;
4309;SDS011;2168;53.576;9.980;2023-06-22T11:43:32;3.70;;;3.70;;
4309;SDS011;2168;53.576;9.980;2023-06-22T11:45:58;3.43;;;3.43;;
4309;SDS011;2168;53.576;9.980;2023-06-22T11:48:25;3.80;;;3.80;;
4309;SDS011;2168;53.576;9.980;2023-06-22T11:50:51;3.53;;;3.53;;
4309;SDS011;2168;53.576;9.980;2023-06-22T11:53:16;3.30;;;3.30;;
4309;SDS011;2168;53.576;9.980;2023-06-22T11:55:42;3.90;;;3.90;;
4309;SDS011;2168;53.576;9.980;2023-06-22T11:58:07;3.40;;;3.40;;
4309;SDS011;2168;53.576;9.980;2023-06-22T12:00:33;3.20;;;3.20;;
4309;SDS011;2168;53.576;9.980;2023-06-22T12:02:58;3.60;;;3.60;;
4309;SDS011;2168;53.576;9.980;2023-06-22T12:05:23;3.50;;;3.50;;
4309;SDS011;2168;53.576;9.980;2023-06-22T12:07:49;3.77;;;3.77;;
4309;SDS011;2168;53.576;9.980;2023-06-22T12:10:15;3.63;;;3.63;;
4309;SDS011;2168;53.576;9.980;2023-06-22T12:12:40;3.67;;;3.67;;
4309;SDS011;2168;53.576;9.980;2023-06-22T12:15:06;3.73;;;3.73;;
4309;SDS011;2168;53.576;9.980;2023-06-22T12:17:32;3.47;;;3.47;;
4309;SDS011;2168;53.576;9.980;2023-06-22T12:19:58;3.40;;;3.40;;
4309;SDS011;2168;53.576;9.980;2023-06-22T12:22:23;3.93;;;3.93;;
4309;SDS011;2168;53.576;9.980;2023-06-22T12:24:48;3.37;;;3.37;;
4309;SDS011;2168;53.576;9.980;2023-06-22T12:27:14;3.92;;;3.92;;
4309;SDS011;2168;53.576;9.980;2023-06-22T12:29:41;3.60;;;3.60;;
4309;SDS011;2168;53.576;9.980;2023-06-22T12:32:06;3.60;;;3.60;;
4309;SDS011;2168;53.576;9.980;2023-06-22T12:34:32;3.53;;;3.53;;
4309;SDS011;2168;53.576;9.980;2023-06-22T12:36:57;3.70;;;3.70;;
4309;SDS011;2168;53.576;9.980;2023-06-22T12:39:22;3.70;;;3.70;;
4309;SDS011;2168;53.576;9.980;2023-06-22T12:41:47;3.40;;;3.40;;
4309;SDS011;2168;53.576;9.980;2023-06-22T12:44:12;3.50;;;3.50;;
4309;SDS011;2168;53.576;9.980;2023-06-22T12:46:38;3.60;;;3.60;;
4309;SDS011;2168;53.576;9.980;2023-06-22T12:49:03;3.70;;;3.70;;
4309;SDS011;2168;53.576;9.980;2023-06-22T12:51:29;3.60;;;3.60;;
4309;SDS011;2168;53.576;9.980;2023-06-22T12:53:54;3.63;;;3.63;;
4309;SDS011;2168;53.576;9.980;2023-06-22T12:56:19;3.83;;;3.83;;
4309;SDS011;2168;53.576;9.980;2023-06-22T12:58:44;4.00;;;4.00;;
4309;SDS011;2168;53.576;9.980;2023-06-22T13:01:10;3.87;;;3.87;;
4309;SDS011;2168;53.576;9.980;2023-06-22T13:03:35;4.10;;;4.10;;
4309;SDS011;2168;53.576;9.980;2023-06-22T13:06:00;3.80;;;3.80;;
4309;SDS011;2168;53.576;9.980;2023-06-22T13:08:25;3.83;;;3.83;;
4309;SDS011;2168;53.576;9.980;2023-06-22T13:10:51;4.27;;;4.27;;
4309;SDS011;2168;53.576;9.980;2023-06-22T13:13:16;3.73;;;3.73;;
4309;SDS011;2168;53.576;9.980;2023-06-22T13:15:41;4.23;;;4.23;;
4309;SDS011;2168;53.576;9.980;2023-06-22T13:18:06;4.10;;;4.10;;
4309;SDS011;2168;53.576;9.980;2023-06-22T13:20:31;4.10;;;4.10;;
4309;SDS011;2168;53.576;9.980;2023-06-22T13:22:56;4.10;;;4.10;;
4309;SDS011;2168;53.576;9.980;2023-06-22T13:25:22;3.60;;;3.60;;
4309;SDS011;2168;53.576;9.980;2023-06-22T13:27:51;3.97;;;3.97;;
4309;SDS011;2168;53.576;9.980;2023-06-22T13:30:16;3.83;;;3.83;;
4309;SDS011;2168;53.576;9.980;2023-06-22T13:32:41;3.87;;;3.87;;
4309;SDS011;2168;53.576;9.980;2023-06-22T13:35:07;4.23;;;4.23;;
4309;SDS011;2168;53.576;9.980;2023-06-22T13:37:33;4.30;;;4.30;;
4309;SDS011;2168;53.576;9.980;2023-06-22T13:39:58;4.10;;;4.10;;
4309;SDS011;2168;53.576;9.980;2023-06-22T13:42:24;3.97;;;3.97;;
4309;SDS011;2168;53.576;9.980;2023-06-22T13:44:49;4.20;;;4.20;;
4309;SDS011;2168;53.576;9.980;2023-06-22T13:47:15;3.87;;;3.87;;
4309;SDS011;2168;53.576;9.980;2023-06-22T13:49:40;3.80;;;3.80;;
4309;SDS011;2168;53.576;9.980;2023-06-22T13:52:05;4.07;;;4.07;;
4309;SDS011;2168;53.576;9.980;2023-06-22T13:54:35;3.80;;;3.80;;
4309;SDS011;2168;53.576;9.980;2023-06-22T13:57:00;3.87;;;3.87;;
4309;SDS011;2168;53.576;9.980;2023-06-22T13:59:25;4.10;;;4.10;;
4309;SDS011;2168;53.576;9.980;2023-06-22T14:01:52;3.97;;;3.97;;
4309;SDS011;2168;53.576;9.980;2023-06-22T14:04:18;4.17;;;4.17;;
4309;SDS011;2168;53.576;9.980;2023-06-22T14:06:43;4.20;;;4.20;;
4309;SDS011;2168;53.576;9.980;2023-06-22T14:09:08;3.90;;;3.90;;
4309;SDS011;2168;53.576;9.980;2023-06-22T14:11:33;4.17;;;4.17;;
4309;SDS011;2168;53.576;9.980;2023-06-22T14:13:58;3.87;;;3.87;;
4309;SDS011;2168;53.576;9.980;2023-06-22T14:16:23;4.20;;;4.20;;
4309;SDS011;2168;53.576;9.980;2023-06-22T14:18:49;3.90;;;3.90;;
4309;SDS011;2168;53.576;9.980;2023-06-22T14:21:14;3.67;;;3.67;;
4309;SDS011;2168;53.576;9.980;2023-06-22T14:23:39;3.67;;;3.67;;
4309;SDS011;2168;53.576;9.980;2023-06-22T14:26:04;3.63;;;3.63;;
4309;SDS011;2168;53.576;9.980;2023-06-22T14:28:29;4.10;;;4.10;;
4309;SDS011;2168;53.576;9.980;2023-06-22T14:30:54;3.70;;;3.70;;
4309;SDS011;2168;53.576;9.980;2023-06-22T14:33:21;3.83;;;3.83;;
4309;SDS011;2168;53.576;9.980;2023-06-22T14:35:46;3.67;;;3.67;;
4309;SDS011;2168;53.576;9.980;2023-06-22T14:38:12;3.90;;;3.90;;
4309;SDS011;2168;53.576;9.980;2023-06-22T14:40:37;3.97;;;3.97;;
4309;SDS011;2168;53.576;9.980;2023-06-22T14:43:02;3.60;;;3.60;;
4309;SDS011;2168;53.576;9.980;2023-06-22T14:45:27;3.67;;;3.67;;
4309;SDS011;2168;53.576;9.980;2023-06-22T14:47:53;3.73;;;3.73;;
4309;SDS011;2168;53.576;9.980;2023-06-22T14:50:18;3.63;;;3.63;;
4309;SDS011;2168;53.576;9.980;2023-06-22T14:52:43;3.40;;;3.40;;
4309;SDS011;2168;53.576;9.980;2023-06-22T14:55:09;3.90;;;3.90;;
4309;SDS011;2168;53.576;9.980;2023-06-22T14:57:34;3.70;;;3.70;;
4309;SDS011;2168;53.576;9.980;2023-06-22T14:59:59;3.43;;;3.43;;
4309;SDS011;2168;53.576;9.980;2023-06-22T15:02:26;3.67;;;3.67;;
4309;SDS011;2168;53.576;9.980;2023-06-22T15:04:51;3.40;;;3.40;;
4309;SDS011;2168;53.576;9.980;2023-06-22T15:07:18;3.20;;;3.20;;
4309;SDS011;2168;53.576;9.980;2023-06-22T15:09:43;3.83;;;3.83;;